Orangeburg, SC

8:58 PM EST on February 10, 2016 (GMT -0500)
APRSWXNET | | Change Station
CLOSE
Current Station
Personal Weather Station
Location: Cordova, SC
Elevation: 206 ft
Nearby Weather Stations
Active Advisory: Lake Wind Advisory

Elev 206 ft 33.49 °N, 80.93 °W | Updated 22 minutes ago

Clear
Clear
28 °F
Feels Like 28 °F
N
0
Wind Variable Wind from SW
Gusts 0.0 mph

Today
High -- | Low -- °F
--% Chance of Precip.
Yesterday
High -- | Low -- °F
Precip. -- in
Pressure 30.13 in
Visibility 10.0 miles
Clouds Clear
Windchill 28 °F
Dew Point 17 °F
Humidity 62%
Rainfall in
Snow Depth Not available.
7:12 AM 6:03 PM
Waxing Crescent, 8% visible
METAR KOGB 110153Z AUTO 26004KT 10SM CLR 00/M11 A3013 RMK AO2 SLP202 T00001106
Pressure 30.13 in
Visibility 10.0 miles
Clouds Clear
Windchill 28 °F
Dew Point 17 °F
Humidity 62%
Rainfall in
Snow Depth Not available.
7:12 AM 6:03 PM
Waxing Crescent, 8% visible
METAR KOGB 110153Z AUTO 26004KT 10SM CLR 00/M11 A3013 RMK AO2 SLP202 T00001106

10-Day Weather Forecast

Almanac

Astronomy

Feb. 10, 2016 Rise Set
Actual Time
Civil Twilight
Nautical Twilight
Astronomical Twilight
Moon
Length of Visible Light
Length of Day
Tomorrow will be .
, % of the Moon is Illuminated

Today's Extremes

State Highs State Lows

Community

WunderPhotos

Upload Photos

1,891,970 photos uploaded!

WunderBlog® & News

Nearby

Air Quality

  Air Quality AQ Index Pollutant
Not available.

Snow Depth

Station Depth Elevation

Earthquake Activity

City Distance Mag. Time & Date
Minimum magnitude displayed is 2.5.

Coastal Water Temperatures

Place Temperature

Stations

Nearby Weather Stations

Station Location Temp. Windchill Dew Point Humidity Wind Precip. Elev Updated Type
                   

Watches & Warnings

Lake Wind Advisory
Issued: 5:58 PM EST Feb. 10, 2016 – National Weather Service

... Lake Wind Advisory remains in effect until 11 PM EST this
evening...

* timing... through this evening.

* Winds... west 20 to 30 knots.

* Impacts... strong winds and rough chop will create hazardous
conditions for small craft and personal watercraft.

Precautionary/preparedness actions...

A lake Wind Advisory indicates that winds will cause rough chop
on area lakes. Small boats will be especially prone to capsizing.